Latest Weather Observations for Orbost

IDV60801

Issued at 9:35 pm EDT Thursday 23 October 2014 (issued every 30 minutes, with the page automatically refreshed every 10 minutes)

About weather observations | Map of weather stations | Latest weather observations for VIC | Other Formats
Station Details ID: 084145 Name: ORBOST Lat: -37.69 Lon: 148.47 Height: 62.65 m
Data from the previous 72 hours. | See also: Recent months at Orbost
Date/Time
EDT
Temp
°C
App
Temp
°C
Dew
Point
Rel
Hum
%
Delta-T
°C
Wind Press
QNH
hPa
Press
MSL
hPa
Rain
since 9 am
mm
Dir
 
Spd
km/h
Gust
km/h
Spd
kts
Gust
kts
23/09:30pm 15.9 17.0 15.6 98 0.2 ESE 4 7 2 4 1019.9 1019.9 0.0
23/09:00pm 15.9 17.0 15.6 98 0.2 ESE 4 7 2 4 1019.9 1019.9 0.0
23/08:30pm 15.8 16.8 15.3 97 0.3 SE 4 7 2 4 1020.0 1020.0 0.0
23/08:00pm 15.9 16.9 15.4 97 0.3 SE 4 9 2 5 1020.0 1020.0 0.0
23/07:30pm 15.9 16.9 15.3 96 0.3 SE 4 7 2 4 1019.9 1019.9 0.0
23/07:00pm 16.0 16.9 15.2 95 0.5 SE 4 7 2 4 1020.2 1020.2 0.0
23/06:30pm 16.1 16.6 15.1 94 0.6 ESE 6 9 3 5 1019.6 1019.6 0.0
23/06:00pm 16.2 16.7 15.1 93 0.6 SE 6 13 3 7 1019.8 1019.8 0.0
23/05:30pm 16.4 16.7 14.9 91 0.9 ESE 7 17 4 9 1019.6 1019.6 0.0
23/05:00pm 16.3 16.6 15.0 92 0.8 ESE 7 13 4 7 1019.4 1019.4 0.0
23/04:30pm 16.7 16.6 14.9 89 1.0 SE 9 19 5 10 1019.6 1019.6 0.0
23/04:00pm 16.9 16.8 14.9 88 1.2 SE 9 19 5 10 1019.5 1019.5 0.0
23/03:30pm 17.2 17.1 15.0 87 1.3 SSE 9 19 5 10 1019.6 1019.6 0.0
23/03:00pm 17.4 17.2 14.7 84 1.6 SSE 9 20 5 11 1019.6 1019.6 0.0
23/02:30pm 17.6 17.4 14.7 83 1.7 SSE 9 15 5 8 1019.9 1019.9 0.0
23/02:00pm 17.9 17.4 15.0 83 1.7 SSE 11 17 6 9 1020.2 1020.2 0.0
23/01:30pm 17.9 17.9 15.3 85 1.5 S 9 15 5 8 1020.4 1020.4 0.0
23/01:00pm 17.9 17.9 15.2 84 1.6 S 9 15 5 8 1020.3 1020.3 0.0
23/12:30pm 18.4 18.0 15.3 82 1.8 S 11 17 6 9 1020.3 1020.3 0.0
23/12:00pm 18.7 18.9 15.8 83 1.7 S 9 13 5 7 1020.6 1020.6 0.0
23/11:30am 18.0 17.2 15.1 83 1.7 SSW 13 19 7 10 1020.6 1020.6 0.0
23/11:00am 18.5 18.6 15.6 83 1.7 SSW 9 17 5 9 1020.5 1020.5 0.0
23/10:30am 18.8 19.6 15.9 83 1.7 S 6 15 3 8 1020.4 1020.4 0.0
23/10:00am 18.3 18.3 15.2 82 1.8 S 9 13 5 7 1020.2 1020.2 0.0
23/09:30am 18.7 18.8 15.4 81 1.9 S 9 15 5 8 1020.0 1020.0 0.0
23/09:00am 18.7 19.1 15.4 81 1.9 SW 7 13 4 7 1019.6 1019.6 0.6
23/08:30am 18.6 18.9 15.1 80 2.1 SSW 7 13 4 7 1019.1 1019.1 0.6
23/08:00am 18.5 18.1 14.2 76 2.5 SW 9 13 5 7 1018.6 1018.6 0.6
23/07:30am 18.2 16.5 13.7 75 2.6 WSW 15 24 8 13 1017.9 1017.9 0.6
23/07:00am 17.1 16.2 13.8 81 1.9 W 11 22 6 12 1016.9 1016.9 0.6
23/06:30am 17.9 17.8 13.8 77 2.3 ENE 7 11 4 6 1015.4 1015.4 0.6
23/06:00am 18.7 18.2 13.8 73 2.8 NE 9 17 5 9 1016.1 1016.1 0.6
23/05:30am 17.6 17.1 14.9 84 1.6 N 11 19 6 10 1017.8 1017.8 0.6
23/05:00am 18.2 17.9 14.3 78 2.2 W 9 17 5 9 1017.6 1017.6 0.0
23/04:30am 18.4 18.0 14.1 76 2.5 NW 9 17 5 9 1017.3 1017.3 0.0
23/04:00am 16.4 16.3 13.3 82 1.7 WNW 6 11 3 6 1016.9 1016.9 0.0
23/03:30am 17.2 16.8 13.1 77 2.3 N 7 7 4 4 1015.8 1015.8 0.0
23/03:00am 16.5 16.3 13.0 80 2.0 ESE 6 9 3 5 1016.0 1016.0 0.0
23/02:30am 18.8 18.7 13.4 71 3.1 NNW 6 9 3 5 1016.1 1016.1 0.0
23/02:00am 17.6 18.1 12.7 73 2.7 NNW 2 6 1 3 1015.8 1015.8 0.0
23/01:30am 17.8 18.1 13.5 76 2.4 NNW 4 6 2 3 1015.6 1015.6 0.0
23/01:00am 16.5 16.2 12.7 78 2.1 W 6 11 3 6 1015.6 1015.6 0.0
23/12:30am 17.4 17.9 12.7 74 2.6 WNW 2 6 1 3 1015.8 1015.8 0.0
23/12:00am 17.0 17.5 12.7 76 2.4 E 2 7 1 4 1016.3 1016.3 0.0
 
Date/Time
EDT
Temp
°C
App
Temp
°C
Dew
Point
Rel
Hum
%
Delta-T
°C
Wind Press
QNH
hPa
Press
MSL
hPa
Rain
since 9 am
mm
Dir
 
Spd
km/h
Gust
km/h
Spd
kts
Gust
kts
22/11:30pm 18.2 18.8 12.0 67 3.4 CALM 0 0 0 0 1016.8 1016.8 0.0
22/11:00pm 18.3 18.9 11.8 66 3.6 CALM 0 0 0 0 1016.7 1016.7 0.0
22/10:30pm 17.2 16.8 12.5 74 2.6 N 6 6 3 3 1016.5 1016.5 0.0
22/10:00pm 18.4 18.9 11.7 65 3.7 CALM 0 0 0 0 1016.7 1016.7 0.0
22/09:30pm 19.8 20.5 12.1 61 4.3 CALM 0 0 0 0 1016.8 1016.8 0.0
22/09:00pm 19.6 20.3 12.1 62 4.2 CALM 0 4 0 2 1016.8 1016.8 0.0
22/08:30pm 20.3 20.4 11.5 57 4.9 E 2 6 1 3 1016.6 1016.6 0.0
22/08:00pm 21.4 21.3 12.0 55 5.3 ENE 4 7 2 4 1016.5 1016.5 0.0
22/07:30pm 20.9 20.5 12.3 58 4.8 E 6 7 3 4 1016.4 1016.4 0.0
22/07:00pm 22.8 22.7 13.3 55 5.5 ESE 6 9 3 5 1016.3 1016.3 0.0
22/06:30pm 24.0 24.3 14.4 55 5.7 SE 6 9 3 5 1016.1 1016.1 0.0
22/06:00pm 24.8 24.4 13.0 47 6.9 SE 7 11 4 6 1016.2 1016.2 0.0
22/05:30pm 25.5 25.2 13.4 47 7.1 SE 7 13 4 7 1016.3 1016.3 0.0
22/05:00pm 25.8 25.3 12.6 44 7.6 SE 7 11 4 6 1016.5 1016.5 0.0
22/04:30pm 25.9 25.1 11.6 40 8.2 SE 7 13 4 7 1016.6 1016.6 0.0
22/04:00pm 25.9 25.7 13.7 47 7.2 SE 7 15 4 8 1016.7 1016.7 0.0
22/03:30pm 25.8 24.9 12.6 44 7.7 SSE 9 15 5 8 1017.2 1017.2 0.0
22/03:00pm 26.4 26.1 14.5 48 7.1 S 9 17 5 9 1017.5 1017.5 0.0
22/02:30pm 26.5 26.3 14.6 48 7.2 S 9 19 5 10 1017.7 1017.7 0.0
22/02:00pm 26.3 25.8 15.0 49 6.8 S 11 19 6 10 1017.8 1017.8 0.0
22/01:30pm 27.1 27.4 14.5 46 7.6 SW 6 13 3 7 1018.2 1018.2 0.0
22/01:00pm 26.3 26.3 14.1 47 7.3 WSW 7 15 4 8 1018.7 1018.7 0.0
22/12:30pm 26.1 26.9 14.9 50 6.8 SSW 4 9 2 5 1018.7 1018.7 0.0
22/12:00pm 25.9 26.4 14.1 48 7.0 NNW 4 7 2 4 1019.1 1019.1 0.0
22/11:30am 25.2 25.3 12.8 46 7.2 WNW 4 7 2 4 1019.6 1019.6 0.0
22/11:00am 24.5 24.8 13.4 50 6.5 WNW 4 7 2 4 1020.1 1020.1 0.0
22/10:30am 23.7 24.1 13.8 53 5.8 NW 4 7 2 4 1020.4 1020.4 0.0
22/10:00am 22.6 22.8 13.1 55 5.5 NW 4 9 2 5 1020.7 1020.7 0.0
22/09:30am 20.9 21.2 13.4 62 4.3 WNW 4 6 2 3 1021.0 1021.0 0.0
22/09:00am 20.1 20.5 13.6 66 3.7 N 4 6 2 3 1021.0 1021.0 0.0
22/08:30am 18.1 17.9 11.7 66 3.5 N 4 7 2 4 1021.3 1021.3 0.0
22/08:00am 16.4 17.0 12.0 75 2.4 CALM 0 4 0 2 1021.5 1021.5 0.0
22/07:30am 15.0 14.5 10.8 76 2.2 N 4 4 2 2 1021.5 1021.5 0.0
22/07:00am 12.7 11.8 9.2 79 1.8 NNW 4 4 2 2 1021.5 1021.5 0.0
22/06:30am 12.7 12.1 8.8 77 2.0 WNW 2 4 1 2 1021.4 1021.4 0.0
22/06:00am 12.6 12.1 9.2 80 1.7 N 2 4 1 2 1021.2 1021.2 0.0
22/05:30am 12.2 11.2 8.9 80 1.7 N 4 6 2 3 1021.1 1021.1 0.0
22/05:00am 13.5 13.4 9.4 76 2.1 CALM 0 0 0 0 1021.3 1021.3 0.0
22/04:30am 12.4 12.2 9.2 81 1.6 CALM 0 2 0 1 1021.5 1021.5 0.0
22/04:00am 13.7 12.8 9.4 75 2.2 N 4 6 2 3 1021.8 1021.8 0.0
22/03:30am 13.0 12.5 9.4 79 1.8 N 2 6 1 3 1022.2 1022.2 0.0
22/03:00am 11.9 11.8 9.3 84 1.3 CALM 0 0 0 0 1022.6 1022.6 0.0
22/02:30am 12.1 11.5 9.1 82 1.5 N 2 4 1 2 1022.9 1022.9 0.0
22/02:00am 12.4 11.8 9.1 80 1.7 NNW 2 6 1 3 1023.1 1023.1 0.0
22/01:30am 14.4 13.5 9.4 72 2.6 NNE 4 7 2 4 1023.4 1023.4 0.0
22/01:00am 13.4 12.7 10.0 80 1.7 NNE 4 6 2 3 1023.9 1023.8 0.0
22/12:30am 15.0 15.0 9.8 71 2.7 CALM 0 0 0 0 1024.3 1024.2 0.0
22/12:00am 14.9 14.6 10.1 73 2.5 NNW 2 2 1 1 1024.5 1024.4 0.0
 
Date/Time
EDT
Temp
°C
App
Temp
°C
Dew
Point
Rel
Hum
%
Delta-T
°C
Wind Press
QNH
hPa
Press
MSL
hPa
Rain
since 9 am
mm
Dir
 
Spd
km/h
Gust
km/h
Spd
kts
Gust
kts
21/11:30pm 15.0 15.0 11.2 78 2.0 NNW 2 4 1 2 1024.6 1024.5 0.0
21/11:00pm 14.9 14.4 10.9 77 2.1 NW 4 4 2 2 1024.8 1024.7 0.0
21/10:30pm 14.3 13.8 10.7 79 1.9 NNW 4 7 2 4 1024.9 1024.8 0.0
21/10:00pm 14.9 14.7 10.5 75 2.3 WNW 2 4 1 2 1025.0 1024.9 0.0
21/09:30pm 16.0 15.1 10.5 70 2.9 ENE 6 7 3 4 1024.9 1024.8 0.0
21/09:00pm 15.9 16.1 10.7 71 2.8 CALM 0 2 0 1 1024.7 1024.6 0.0
21/08:30pm 16.5 16.7 10.6 68 3.1 CALM 0 0 0 0 1024.5 1024.4 0.0
21/08:00pm 16.9 16.3 10.5 66 3.4 E 4 6 2 3 1024.5 1024.4 0.0
21/07:30pm 18.0 17.2 10.9 63 3.8 ESE 6 7 3 4 1024.3 1024.2 0.0
21/07:00pm 20.3 19.5 11.2 56 5.0 ESE 6 11 3 6 1024.1 1024.0 0.0
21/06:30pm 21.3 20.3 11.1 52 5.6 ESE 7 13 4 7 1024.0 1023.9 0.0
21/06:00pm 22.2 21.3 11.3 50 6.0 ESE 7 13 4 7 1024.1 1024.0 0.0
21/05:30pm 22.8 21.7 12.1 51 6.1 ESE 9 15 5 8 1024.1 1024.0 0.0
21/05:00pm 23.0 21.9 12.0 50 6.2 ESE 9 15 5 8 1024.3 1024.2 0.0
21/04:30pm 22.9 21.8 11.9 50 6.2 SE 9 17 5 9 1024.5 1024.4 0.0
21/04:00pm 23.1 22.0 11.8 49 6.4 SE 9 17 5 9 1024.7 1024.6 0.0
21/03:30pm 23.1 22.0 12.1 50 6.2 SSE 9 17 5 9 1024.9 1024.8 0.0
21/03:00pm 22.9 21.6 11.3 48 6.5 SSE 9 17 5 9 1025.2 1025.1 0.0
21/02:30pm 22.5 21.1 10.9 48 6.4 SE 9 17 5 9 1025.8 1025.7 0.0
21/02:00pm 22.9 21.9 11.0 47 6.6 N 7 13 4 7 1026.3 1026.2 0.0
21/01:30pm 22.6 21.5 10.7 47 6.6 E 7 13 4 7 1026.8 1026.7 0.0
21/01:00pm 22.2 20.8 11.0 49 6.2 ENE 9 17 5 9 1027.2 1027.2 0.0
21/12:30pm 21.1 19.0 9.7 48 6.1 ENE 11 17 6 9 1027.7 1027.7 0.0
21/12:00pm 20.5 18.8 10.0 51 5.6 E 9 19 5 10 1028.1 1028.1 0.0
21/11:30am 20.6 18.8 10.7 53 5.4 ENE 11 19 6 10 1028.6 1028.6 0.0
21/11:00am 19.2 16.8 8.8 51 5.4 ENE 11 20 6 11 1028.9 1028.9 0.0
21/10:30am 18.4 17.0 9.7 57 4.6 E 7 17 4 9 1029.4 1029.4 0.0
21/10:00am 16.9 14.8 8.1 56 4.4 E 9 20 5 11 1029.6 1029.6 0.0
21/09:30am 16.1 14.0 8.1 59 4.1 E 9 17 5 9 1029.9 1029.9 0.0
21/09:00am 14.9 12.3 7.7 62 3.6 E 11 17 6 9 1029.9 1029.9 0.0
21/08:30am 14.3 12.5 7.8 65 3.2 E 7 9 4 5 1030.0 1030.0 0.0
21/08:00am 12.9 10.9 7.1 68 2.8 E 7 15 4 8 1029.9 1029.9 0.0
21/07:30am 11.8 9.4 6.9 72 2.3 E 9 15 5 8 1029.8 1029.8 0.0
21/07:00am 10.4 7.9 6.5 77 1.8 E 9 13 5 7 1029.7 1029.7 0.0
21/06:30am 8.6 6.5 5.9 83 1.2 E 6 9 3 5 1029.7 1029.7 0.0
21/06:00am 7.6 5.9 5.7 88 0.8 E 4 6 2 3 1029.5 1029.5 0.0
21/05:30am 7.6 5.5 5.9 89 0.8 E 6 6 3 3 1029.5 1029.5 0.0
21/05:00am 7.3 5.6 5.9 91 0.6 ESE 4 6 2 3 1029.7 1029.7 0.0
21/04:30am 7.6 6.3 6.1 90 0.7 E 2 4 1 2 1029.8 1029.8 0.0
21/04:00am 7.8 6.1 5.8 87 0.9 E 4 6 2 3 1029.9 1029.9 0.0
21/03:30am 8.8 6.7 5.9 82 1.3 E 6 9 3 5 1030.1 1030.1 0.0
21/03:00am 9.1 6.9 6.2 82 1.3 E 7 13 4 7 1030.3 1030.3 0.0
21/02:30am 8.3 6.6 6.1 86 1.0 ESE 4 6 2 3 1030.6 1030.6 0.0
21/02:00am 8.4 6.7 6.0 85 1.1 ESE 4 6 2 3 1030.8 1030.8 0.0
21/01:30am 9.2 7.2 6.1 81 1.4 E 6 7 3 4 1031.1 1031.1 0.0
21/01:00am 10.3 8.1 6.3 76 1.9 E 7 13 4 7 1031.4 1031.4 0.0
21/12:30am 10.5 7.9 6.3 75 2.0 E 9 13 5 7 1031.5 1031.5 0.0
21/12:00am 10.6 8.4 6.2 74 2.0 ESE 7 13 4 7 1031.7 1031.7 0.0
 
Date/Time
EDT
Temp
°C
App
Temp
°C
Dew
Point
Rel
Hum
%
Delta-T
°C
Wind Press
QNH
hPa
Press
MSL
hPa
Rain
since 9 am
mm
Dir
 
Spd
km/h
Gust
km/h
Spd
kts
Gust
kts
20/11:30pm 11.1 8.5 6.3 72 2.3 ESE 9 17 5 9 1031.7 1031.7 0.0
20/11:00pm 11.7 9.2 6.4 70 2.5 ESE 9 17 5 9 1031.7 1031.7 0.0
20/10:30pm 11.9 9.0 6.4 69 2.6 E 11 17 6 9 1031.7 1031.7 0.0
20/10:00pm 12.1 9.1 6.2 67 2.8 E 11 19 6 10 1031.7 1031.7 0.0

Other Formats:

Comma delimited format used in spreadsheet applications
http://www.bom.gov.au/fwo/IDV60801/IDV60801.95918.axf

JavaScript Object Notation format (JSON) in row-major order
http://www.bom.gov.au/fwo/IDV60801/IDV60801.95918.json